sensor_id;sensor_type;location;lat;lon;timestamp;P1;durP1;ratioP1;P2;durP2;ratioP2
15039;SDS011;7617;47.366;8.558;2024-01-30T00:01:44;6.60;;;5.03;;
15039;SDS011;7617;47.366;8.558;2024-01-30T00:04:13;8.13;;;5.53;;
15039;SDS011;7617;47.366;8.558;2024-01-30T00:06:43;7.07;;;5.60;;
15039;SDS011;7617;47.366;8.558;2024-01-30T00:09:11;9.37;;;5.50;;
15039;SDS011;7617;47.366;8.558;2024-01-30T00:11:40;6.70;;;5.50;;
15039;SDS011;7617;47.366;8.558;2024-01-30T00:14:08;6.00;;;5.10;;
15039;SDS011;7617;47.366;8.558;2024-01-30T00:16:36;8.17;;;5.57;;
15039;SDS011;7617;47.366;8.558;2024-01-30T00:19:04;7.10;;;5.10;;
15039;SDS011;7617;47.366;8.558;2024-01-30T00:21:34;7.20;;;6.00;;
15039;SDS011;7617;47.366;8.558;2024-01-30T00:24:02;8.63;;;5.90;;
15039;SDS011;7617;47.366;8.558;2024-01-30T00:26:30;7.57;;;6.00;;
15039;SDS011;7617;47.366;8.558;2024-01-30T00:28:59;7.63;;;5.73;;
15039;SDS011;7617;47.366;8.558;2024-01-30T00:31:27;8.17;;;6.13;;
15039;SDS011;7617;47.366;8.558;2024-01-30T00:33:55;7.00;;;6.30;;
15039;SDS011;7617;47.366;8.558;2024-01-30T00:36:23;8.17;;;5.83;;
15039;SDS011;7617;47.366;8.558;2024-01-30T00:38:53;9.00;;;6.47;;
15039;SDS011;7617;47.366;8.558;2024-01-30T00:41:21;8.03;;;5.87;;
15039;SDS011;7617;47.366;8.558;2024-01-30T00:43:51;7.37;;;6.67;;
15039;SDS011;7617;47.366;8.558;2024-01-30T00:46:19;7.70;;;6.10;;
15039;SDS011;7617;47.366;8.558;2024-01-30T00:48:47;6.53;;;5.67;;
15039;SDS011;7617;47.366;8.558;2024-01-30T00:51:16;6.53;;;5.57;;
15039;SDS011;7617;47.366;8.558;2024-01-30T00:53:44;8.10;;;6.10;;
15039;SDS011;7617;47.366;8.558;2024-01-30T00:56:14;6.87;;;6.13;;
15039;SDS011;7617;47.366;8.558;2024-01-30T00:58:44;6.90;;;5.87;;
15039;SDS011;7617;47.366;8.558;2024-01-30T01:01:13;7.87;;;5.67;;
15039;SDS011;7617;47.366;8.558;2024-01-30T01:03:41;6.33;;;5.40;;
15039;SDS011;7617;47.366;8.558;2024-01-30T01:06:10;7.03;;;5.83;;
15039;SDS011;7617;47.366;8.558;2024-01-30T01:08:38;9.43;;;5.83;;
15039;SDS011;7617;47.366;8.558;2024-01-30T01:11:06;6.50;;;5.80;;
15039;SDS011;7617;47.366;8.558;2024-01-30T01:13:36;7.10;;;5.80;;
15039;SDS011;7617;47.366;8.558;2024-01-30T01:16:04;6.80;;;5.70;;
15039;SDS011;7617;47.366;8.558;2024-01-30T01:18:32;7.33;;;4.87;;
15039;SDS011;7617;47.366;8.558;2024-01-30T01:21:00;6.67;;;5.50;;
15039;SDS011;7617;47.366;8.558;2024-01-30T01:23:29;8.97;;;5.77;;
15039;SDS011;7617;47.366;8.558;2024-01-30T01:25:57;7.17;;;5.87;;
15039;SDS011;7617;47.366;8.558;2024-01-30T01:28:27;6.83;;;5.70;;
15039;SDS011;7617;47.366;8.558;2024-01-30T01:30:56;7.07;;;5.80;;
15039;SDS011;7617;47.366;8.558;2024-01-30T01:33:31;8.07;;;6.10;;
15039;SDS011;7617;47.366;8.558;2024-01-30T01:36:00;7.27;;;5.80;;
15039;SDS011;7617;47.366;8.558;2024-01-30T01:38:29;6.67;;;5.47;;
15039;SDS011;7617;47.366;8.558;2024-01-30T01:40:57;7.53;;;5.83;;
15039;SDS011;7617;47.366;8.558;2024-01-30T01:43:25;9.23;;;6.97;;
15039;SDS011;7617;47.366;8.558;2024-01-30T01:45:53;7.83;;;6.07;;
15039;SDS011;7617;47.366;8.558;2024-01-30T01:48:23;7.37;;;5.97;;
15039;SDS011;7617;47.366;8.558;2024-01-30T01:50:51;8.27;;;6.17;;
15039;SDS011;7617;47.366;8.558;2024-01-30T01:53:20;7.73;;;6.20;;
15039;SDS011;7617;47.366;8.558;2024-01-30T01:55:49;8.23;;;6.60;;
15039;SDS011;7617;47.366;8.558;2024-01-30T01:58:19;7.73;;;5.97;;
15039;SDS011;7617;47.366;8.558;2024-01-30T02:00:49;7.33;;;6.30;;
15039;SDS011;7617;47.366;8.558;2024-01-30T02:03:18;10.30;;;6.43;;
15039;SDS011;7617;47.366;8.558;2024-01-30T02:05:49;7.10;;;5.57;;
15039;SDS011;7617;47.366;8.558;2024-01-30T02:08:18;7.43;;;6.20;;
15039;SDS011;7617;47.366;8.558;2024-01-30T02:10:46;7.93;;;5.83;;
15039;SDS011;7617;47.366;8.558;2024-01-30T02:13:14;9.30;;;6.30;;
15039;SDS011;7617;47.366;8.558;2024-01-30T02:15:42;9.57;;;5.70;;
15039;SDS011;7617;47.366;8.558;2024-01-30T02:18:10;7.37;;;6.20;;
15039;SDS011;7617;47.366;8.558;2024-01-30T02:20:40;6.67;;;5.90;;
15039;SDS011;7617;47.366;8.558;2024-01-30T02:23:09;8.07;;;6.63;;
15039;SDS011;7617;47.366;8.558;2024-01-30T02:25:40;7.37;;;6.30;;
15039;SDS011;7617;47.366;8.558;2024-01-30T02:28:11;7.47;;;6.40;;
15039;SDS011;7617;47.366;8.558;2024-01-30T02:30:39;8.50;;;6.47;;
15039;SDS011;7617;47.366;8.558;2024-01-30T02:33:07;6.13;;;5.50;;
15039;SDS011;7617;47.366;8.558;2024-01-30T02:35:35;8.97;;;6.70;;
15039;SDS011;7617;47.366;8.558;2024-01-30T02:38:04;7.43;;;6.03;;
15039;SDS011;7617;47.366;8.558;2024-01-30T02:40:33;7.40;;;6.00;;
15039;SDS011;7617;47.366;8.558;2024-01-30T02:43:02;7.53;;;6.20;;
15039;SDS011;7617;47.366;8.558;2024-01-30T02:45:31;8.03;;;6.07;;
15039;SDS011;7617;47.366;8.558;2024-01-30T02:47:59;9.10;;;6.33;;
15039;SDS011;7617;47.366;8.558;2024-01-30T02:50:27;9.03;;;6.37;;
15039;SDS011;7617;47.366;8.558;2024-01-30T02:52:55;8.10;;;5.97;;
15039;SDS011;7617;47.366;8.558;2024-01-30T02:55:23;7.53;;;6.17;;
15039;SDS011;7617;47.366;8.558;2024-01-30T02:57:53;7.73;;;5.97;;
15039;SDS011;7617;47.366;8.558;2024-01-30T03:00:21;8.13;;;6.33;;
15039;SDS011;7617;47.366;8.558;2024-01-30T03:02:49;8.63;;;6.67;;
15039;SDS011;7617;47.366;8.558;2024-01-30T03:05:17;7.23;;;6.10;;
15039;SDS011;7617;47.366;8.558;2024-01-30T03:07:46;7.17;;;6.37;;
15039;SDS011;7617;47.366;8.558;2024-01-30T03:10:14;8.20;;;6.47;;
15039;SDS011;7617;47.366;8.558;2024-01-30T03:12:43;7.00;;;5.87;;
15039;SDS011;7617;47.366;8.558;2024-01-30T03:15:12;8.90;;;6.27;;
15039;SDS011;7617;47.366;8.558;2024-01-30T03:17:40;8.30;;;6.57;;
15039;SDS011;7617;47.366;8.558;2024-01-30T03:20:09;7.03;;;6.23;;
15039;SDS011;7617;47.366;8.558;2024-01-30T03:22:38;6.97;;;5.80;;
15039;SDS011;7617;47.366;8.558;2024-01-30T03:25:07;7.10;;;6.20;;
15039;SDS011;7617;47.366;8.558;2024-01-30T03:27:35;7.73;;;6.23;;
15039;SDS011;7617;47.366;8.558;2024-01-30T03:30:04;8.63;;;6.33;;
15039;SDS011;7617;47.366;8.558;2024-01-30T03:32:34;7.77;;;5.63;;
15039;SDS011;7617;47.366;8.558;2024-01-30T03:35:03;7.13;;;6.03;;
15039;SDS011;7617;47.366;8.558;2024-01-30T03:37:31;7.87;;;6.60;;
15039;SDS011;7617;47.366;8.558;2024-01-30T03:39:59;8.47;;;6.57;;
15039;SDS011;7617;47.366;8.558;2024-01-30T03:42:28;8.23;;;6.17;;
15039;SDS011;7617;47.366;8.558;2024-01-30T03:44:56;6.80;;;6.07;;
15039;SDS011;7617;47.366;8.558;2024-01-30T03:47:25;6.97;;;6.00;;
15039;SDS011;7617;47.366;8.558;2024-01-30T03:49:54;7.83;;;6.00;;
15039;SDS011;7617;47.366;8.558;2024-01-30T03:52:22;7.70;;;6.57;;
15039;SDS011;7617;47.366;8.558;2024-01-30T03:54:51;7.83;;;6.43;;
15039;SDS011;7617;47.366;8.558;2024-01-30T03:57:19;8.23;;;5.90;;
15039;SDS011;7617;47.366;8.558;2024-01-30T03:59:47;7.20;;;6.20;;
15039;SDS011;7617;47.366;8.558;2024-01-30T04:02:14;7.37;;;5.80;;
15039;SDS011;7617;47.366;8.558;2024-01-30T04:04:44;7.23;;;5.87;;
15039;SDS011;7617;47.366;8.558;2024-01-30T04:07:14;7.70;;;5.93;;
15039;SDS011;7617;47.366;8.558;2024-01-30T04:09:42;8.53;;;6.30;;
15039;SDS011;7617;47.366;8.558;2024-01-30T04:12:10;7.60;;;5.87;;
15039;SDS011;7617;47.366;8.558;2024-01-30T04:14:39;8.23;;;6.07;;
15039;SDS011;7617;47.366;8.558;2024-01-30T04:17:07;7.57;;;5.87;;
15039;SDS011;7617;47.366;8.558;2024-01-30T04:19:37;6.33;;;5.40;;
15039;SDS011;7617;47.366;8.558;2024-01-30T04:22:06;7.13;;;6.20;;
15039;SDS011;7617;47.366;8.558;2024-01-30T04:24:36;7.60;;;5.93;;
15039;SDS011;7617;47.366;8.558;2024-01-30T04:27:04;8.43;;;5.90;;
15039;SDS011;7617;47.366;8.558;2024-01-30T04:29:33;7.50;;;5.43;;
15039;SDS011;7617;47.366;8.558;2024-01-30T04:32:02;6.93;;;5.60;;
15039;SDS011;7617;47.366;8.558;2024-01-30T04:34:30;8.23;;;5.67;;
15039;SDS011;7617;47.366;8.558;2024-01-30T04:36:59;7.90;;;6.30;;
15039;SDS011;7617;47.366;8.558;2024-01-30T04:39:27;9.47;;;6.77;;
15039;SDS011;7617;47.366;8.558;2024-01-30T04:41:57;8.17;;;6.57;;
15039;SDS011;7617;47.366;8.558;2024-01-30T04:44:26;7.97;;;6.57;;
15039;SDS011;7617;47.366;8.558;2024-01-30T04:46:53;7.43;;;6.37;;
15039;SDS011;7617;47.366;8.558;2024-01-30T04:49:25;10.53;;;7.03;;
15039;SDS011;7617;47.366;8.558;2024-01-30T04:51:54;8.27;;;7.10;;
15039;SDS011;7617;47.366;8.558;2024-01-30T04:54:22;9.10;;;6.77;;
15039;SDS011;7617;47.366;8.558;2024-01-30T04:56:50;7.63;;;6.47;;
15039;SDS011;7617;47.366;8.558;2024-01-30T04:59:20;10.20;;;6.73;;
15039;SDS011;7617;47.366;8.558;2024-01-30T05:01:48;9.93;;;6.80;;
15039;SDS011;7617;47.366;8.558;2024-01-30T05:04:17;11.53;;;7.13;;
15039;SDS011;7617;47.366;8.558;2024-01-30T05:06:46;8.53;;;6.50;;
15039;SDS011;7617;47.366;8.558;2024-01-30T05:09:14;10.33;;;6.87;;
15039;SDS011;7617;47.366;8.558;2024-01-30T05:11:42;8.40;;;6.37;;
15039;SDS011;7617;47.366;8.558;2024-01-30T05:14:10;8.33;;;6.47;;
15039;SDS011;7617;47.366;8.558;2024-01-30T05:16:40;7.37;;;6.60;;
15039;SDS011;7617;47.366;8.558;2024-01-30T05:19:09;9.37;;;6.83;;
15039;SDS011;7617;47.366;8.558;2024-01-30T05:21:37;8.33;;;6.80;;
15039;SDS011;7617;47.366;8.558;2024-01-30T05:24:06;8.33;;;6.10;;
15039;SDS011;7617;47.366;8.558;2024-01-30T05:26:37;9.83;;;6.93;;
15039;SDS011;7617;47.366;8.558;2024-01-30T05:29:05;8.97;;;6.27;;
15039;SDS011;7617;47.366;8.558;2024-01-30T05:31:34;7.97;;;6.80;;
15039;SDS011;7617;47.366;8.558;2024-01-30T05:34:04;8.53;;;6.93;;
15039;SDS011;7617;47.366;8.558;2024-01-30T05:36:33;7.37;;;6.63;;
15039;SDS011;7617;47.366;8.558;2024-01-30T05:39:01;6.07;;;5.43;;
15039;SDS011;7617;47.366;8.558;2024-01-30T05:41:34;6.73;;;5.80;;
15039;SDS011;7617;47.366;8.558;2024-01-30T05:44:02;7.63;;;5.80;;
15039;SDS011;7617;47.366;8.558;2024-01-30T05:46:30;8.17;;;5.87;;
15039;SDS011;7617;47.366;8.558;2024-01-30T05:48:58;7.30;;;5.33;;
15039;SDS011;7617;47.366;8.558;2024-01-30T05:51:28;6.20;;;5.40;;
15039;SDS011;7617;47.366;8.558;2024-01-30T05:53:57;6.23;;;5.60;;
15039;SDS011;7617;47.366;8.558;2024-01-30T05:56:25;6.33;;;5.57;;
15039;SDS011;7617;47.366;8.558;2024-01-30T05:58:53;7.90;;;5.73;;
15039;SDS011;7617;47.366;8.558;2024-01-30T06:01:22;7.67;;;6.00;;
15039;SDS011;7617;47.366;8.558;2024-01-30T06:03:51;6.77;;;6.07;;
15039;SDS011;7617;47.366;8.558;2024-01-30T06:06:19;7.63;;;5.73;;
15039;SDS011;7617;47.366;8.558;2024-01-30T06:08:49;9.13;;;6.07;;
15039;SDS011;7617;47.366;8.558;2024-01-30T06:11:16;6.53;;;5.87;;
15039;SDS011;7617;47.366;8.558;2024-01-30T06:13:45;7.73;;;5.70;;
15039;SDS011;7617;47.366;8.558;2024-01-30T06:16:14;6.13;;;5.53;;
15039;SDS011;7617;47.366;8.558;2024-01-30T06:18:43;5.93;;;5.07;;
15039;SDS011;7617;47.366;8.558;2024-01-30T06:21:11;6.00;;;5.40;;
15039;SDS011;7617;47.366;8.558;2024-01-30T06:23:39;6.77;;;5.50;;
15039;SDS011;7617;47.366;8.558;2024-01-30T06:26:08;8.10;;;6.40;;
15039;SDS011;7617;47.366;8.558;2024-01-30T06:28:37;7.07;;;5.70;;
15039;SDS011;7617;47.366;8.558;2024-01-30T06:31:05;7.33;;;5.77;;
15039;SDS011;7617;47.366;8.558;2024-01-30T06:33:34;6.87;;;5.33;;
15039;SDS011;7617;47.366;8.558;2024-01-30T06:36:03;12.17;;;6.00;;
15039;SDS011;7617;47.366;8.558;2024-01-30T06:38:31;6.97;;;5.50;;
15039;SDS011;7617;47.366;8.558;2024-01-30T06:40:59;6.27;;;5.63;;
15039;SDS011;7617;47.366;8.558;2024-01-30T06:43:29;7.67;;;5.43;;
15039;SDS011;7617;47.366;8.558;2024-01-30T06:45:57;5.93;;;5.27;;
15039;SDS011;7617;47.366;8.558;2024-01-30T06:48:25;9.50;;;6.10;;
15039;SDS011;7617;47.366;8.558;2024-01-30T06:50:54;8.50;;;5.70;;
15039;SDS011;7617;47.366;8.558;2024-01-30T06:53:24;6.60;;;5.67;;
15039;SDS011;7617;47.366;8.558;2024-01-30T06:55:53;6.70;;;5.70;;
15039;SDS011;7617;47.366;8.558;2024-01-30T06:58:21;8.43;;;6.13;;
15039;SDS011;7617;47.366;8.558;2024-01-30T07:00:51;11.40;;;6.03;;
15039;SDS011;7617;47.366;8.558;2024-01-30T07:03:19;6.93;;;5.90;;
15039;SDS011;7617;47.366;8.558;2024-01-30T07:05:48;7.87;;;6.10;;
15039;SDS011;7617;47.366;8.558;2024-01-30T07:08:17;8.43;;;5.80;;
15039;SDS011;7617;47.366;8.558;2024-01-30T07:10:45;7.03;;;5.47;;
15039;SDS011;7617;47.366;8.558;2024-01-30T07:13:14;9.03;;;5.47;;
15039;SDS011;7617;47.366;8.558;2024-01-30T07:15:43;7.53;;;5.57;;
15039;SDS011;7617;47.366;8.558;2024-01-30T07:18:13;14.07;;;5.90;;
15039;SDS011;7617;47.366;8.558;2024-01-30T07:20:41;7.53;;;6.27;;
15039;SDS011;7617;47.366;8.558;2024-01-30T07:23:12;9.60;;;5.90;;
15039;SDS011;7617;47.366;8.558;2024-01-30T07:25:43;7.33;;;6.00;;
15039;SDS011;7617;47.366;8.558;2024-01-30T07:28:15;8.93;;;6.13;;
15039;SDS011;7617;47.366;8.558;2024-01-30T07:30:44;11.23;;;6.30;;
15039;SDS011;7617;47.366;8.558;2024-01-30T07:33:15;8.07;;;6.23;;
15039;SDS011;7617;47.366;8.558;2024-01-30T07:35:44;9.53;;;6.50;;
15039;SDS011;7617;47.366;8.558;2024-01-30T07:38:13;9.30;;;6.80;;
15039;SDS011;7617;47.366;8.558;2024-01-30T07:40:41;8.27;;;6.63;;
15039;SDS011;7617;47.366;8.558;2024-01-30T07:43:10;13.30;;;6.43;;
15039;SDS011;7617;47.366;8.558;2024-01-30T07:45:38;12.57;;;6.70;;
15039;SDS011;7617;47.366;8.558;2024-01-30T07:48:08;9.47;;;6.83;;
15039;SDS011;7617;47.366;8.558;2024-01-30T07:50:37;13.33;;;7.57;;
15039;SDS011;7617;47.366;8.558;2024-01-30T07:53:06;10.23;;;6.70;;
15039;SDS011;7617;47.366;8.558;2024-01-30T07:55:34;10.83;;;6.27;;
15039;SDS011;7617;47.366;8.558;2024-01-30T07:58:02;15.00;;;7.37;;
15039;SDS011;7617;47.366;8.558;2024-01-30T08:00:31;12.07;;;6.57;;
15039;SDS011;7617;47.366;8.558;2024-01-30T08:02:59;11.10;;;7.27;;
15039;SDS011;7617;47.366;8.558;2024-01-30T08:05:28;8.57;;;6.80;;
15039;SDS011;7617;47.366;8.558;2024-01-30T08:07:58;10.67;;;6.87;;
15039;SDS011;7617;47.366;8.558;2024-01-30T08:10:26;13.33;;;7.87;;
15039;SDS011;7617;47.366;8.558;2024-01-30T08:12:54;20.40;;;9.10;;
15039;SDS011;7617;47.366;8.558;2024-01-30T08:15:22;10.00;;;7.27;;
15039;SDS011;7617;47.366;8.558;2024-01-30T08:17:51;10.20;;;6.83;;
15039;SDS011;7617;47.366;8.558;2024-01-30T08:20:22;10.63;;;6.90;;
15039;SDS011;7617;47.366;8.558;2024-01-30T08:22:51;14.53;;;7.47;;
15039;SDS011;7617;47.366;8.558;2024-01-30T08:25:21;9.00;;;6.50;;
15039;SDS011;7617;47.366;8.558;2024-01-30T08:27:50;9.53;;;6.80;;
15039;SDS011;7617;47.366;8.558;2024-01-30T08:30:18;8.67;;;6.90;;
15039;SDS011;7617;47.366;8.558;2024-01-30T08:32:47;11.03;;;7.50;;
15039;SDS011;7617;47.366;8.558;2024-01-30T08:35:15;11.20;;;6.50;;
15039;SDS011;7617;47.366;8.558;2024-01-30T08:37:44;13.07;;;7.20;;
15039;SDS011;7617;47.366;8.558;2024-01-30T08:40:12;10.27;;;6.80;;
15039;SDS011;7617;47.366;8.558;2024-01-30T08:42:42;8.13;;;6.60;;
15039;SDS011;7617;47.366;8.558;2024-01-30T08:45:10;10.00;;;6.63;;
15039;SDS011;7617;47.366;8.558;2024-01-30T08:47:40;10.37;;;7.50;;
15039;SDS011;7617;47.366;8.558;2024-01-30T08:50:08;10.00;;;7.20;;
15039;SDS011;7617;47.366;8.558;2024-01-30T08:52:37;10.93;;;7.50;;
15039;SDS011;7617;47.366;8.558;2024-01-30T08:55:05;12.33;;;7.20;;
15039;SDS011;7617;47.366;8.558;2024-01-30T08:57:34;12.60;;;8.53;;
15039;SDS011;7617;47.366;8.558;2024-01-30T09:00:05;12.77;;;8.07;;
15039;SDS011;7617;47.366;8.558;2024-01-30T09:02:35;8.73;;;7.83;;
15039;SDS011;7617;47.366;8.558;2024-01-30T09:05:04;12.47;;;8.23;;
15039;SDS011;7617;47.366;8.558;2024-01-30T09:07:32;12.97;;;7.27;;
15039;SDS011;7617;47.366;8.558;2024-01-30T09:10:01;12.07;;;8.17;;
15039;SDS011;7617;47.366;8.558;2024-01-30T09:12:30;9.13;;;7.93;;
15039;SDS011;7617;47.366;8.558;2024-01-30T09:15:01;12.33;;;8.27;;
15039;SDS011;7617;47.366;8.558;2024-01-30T09:17:31;13.03;;;8.70;;
15039;SDS011;7617;47.366;8.558;2024-01-30T09:19:59;11.70;;;8.77;;
15039;SDS011;7617;47.366;8.558;2024-01-30T09:22:27;10.20;;;7.97;;
15039;SDS011;7617;47.366;8.558;2024-01-30T09:24:56;12.17;;;8.67;;
15039;SDS011;7617;47.366;8.558;2024-01-30T09:27:24;11.40;;;8.20;;
15039;SDS011;7617;47.366;8.558;2024-01-30T09:29:52;14.23;;;8.20;;
15039;SDS011;7617;47.366;8.558;2024-01-30T09:32:20;9.00;;;8.07;;
15039;SDS011;7617;47.366;8.558;2024-01-30T09:34:50;13.93;;;9.13;;
15039;SDS011;7617;47.366;8.558;2024-01-30T09:37:18;13.97;;;10.23;;
15039;SDS011;7617;47.366;8.558;2024-01-30T09:39:49;11.00;;;8.87;;
15039;SDS011;7617;47.366;8.558;2024-01-30T09:42:18;14.43;;;9.80;;
15039;SDS011;7617;47.366;8.558;2024-01-30T09:44:54;12.63;;;8.70;;
15039;SDS011;7617;47.366;8.558;2024-01-30T09:47:22;19.67;;;9.33;;
15039;SDS011;7617;47.366;8.558;2024-01-30T09:49:51;12.30;;;8.97;;
15039;SDS011;7617;47.366;8.558;2024-01-30T09:52:20;13.03;;;9.73;;
15039;SDS011;7617;47.366;8.558;2024-01-30T09:54:48;12.73;;;9.10;;
15039;SDS011;7617;47.366;8.558;2024-01-30T09:57:18;13.37;;;9.47;;
15039;SDS011;7617;47.366;8.558;2024-01-30T09:59:47;14.93;;;9.30;;
15039;SDS011;7617;47.366;8.558;2024-01-30T10:02:17;11.07;;;8.90;;
15039;SDS011;7617;47.366;8.558;2024-01-30T10:04:47;9.03;;;8.13;;
15039;SDS011;7617;47.366;8.558;2024-01-30T10:07:17;9.63;;;8.70;;
15039;SDS011;7617;47.366;8.558;2024-01-30T10:09:46;10.97;;;8.17;;
15039;SDS011;7617;47.366;8.558;2024-01-30T10:12:15;10.63;;;9.00;;
15039;SDS011;7617;47.366;8.558;2024-01-30T10:14:44;9.87;;;8.87;;
15039;SDS011;7617;47.366;8.558;2024-01-30T10:17:12;12.23;;;9.83;;
15039;SDS011;7617;47.366;8.558;2024-01-30T10:19:54;12.87;;;9.33;;
15039;SDS011;7617;47.366;8.558;2024-01-30T10:22:23;9.63;;;8.53;;
15039;SDS011;7617;47.366;8.558;2024-01-30T10:24:52;10.63;;;9.30;;
15039;SDS011;7617;47.366;8.558;2024-01-30T10:27:23;11.13;;;8.40;;
15039;SDS011;7617;47.366;8.558;2024-01-30T10:29:53;10.30;;;9.03;;
15039;SDS011;7617;47.366;8.558;2024-01-30T10:32:21;12.40;;;8.83;;
15039;SDS011;7617;47.366;8.558;2024-01-30T10:34:49;9.20;;;8.30;;
15039;SDS011;7617;47.366;8.558;2024-01-30T10:37:17;10.03;;;8.97;;
15039;SDS011;7617;47.366;8.558;2024-01-30T10:39:51;11.03;;;9.17;;
15039;SDS011;7617;47.366;8.558;2024-01-30T10:42:24;10.43;;;9.00;;
15039;SDS011;7617;47.366;8.558;2024-01-30T10:44:56;8.93;;;7.93;;
15039;SDS011;7617;47.366;8.558;2024-01-30T10:47:28;10.40;;;8.83;;
15039;SDS011;7617;47.366;8.558;2024-01-30T10:49:57;11.87;;;8.67;;
15039;SDS011;7617;47.366;8.558;2024-01-30T10:52:25;11.97;;;9.40;;
15039;SDS011;7617;47.366;8.558;2024-01-30T10:54:57;12.25;;;9.30;;
15039;SDS011;7617;47.366;8.558;2024-01-30T10:57:26;10.53;;;9.30;;
15039;SDS011;7617;47.366;8.558;2024-01-30T10:59:55;9.53;;;7.90;;
15039;SDS011;7617;47.366;8.558;2024-01-30T11:02:25;11.50;;;8.10;;
15039;SDS011;7617;47.366;8.558;2024-01-30T11:04:55;11.60;;;8.25;;
15039;SDS011;7617;47.366;8.558;2024-01-30T11:07:26;9.40;;;8.13;;
15039;SDS011;7617;47.366;8.558;2024-01-30T11:10:00;10.25;;;8.27;;
15039;SDS011;7617;47.366;8.558;2024-01-30T11:12:31;8.98;;;8.18;;
15039;SDS011;7617;47.366;8.558;2024-01-30T11:15:04;8.57;;;7.32;;
15039;SDS011;7617;47.366;8.558;2024-01-30T11:17:49;9.32;;;7.88;;
15039;SDS011;7617;47.366;8.558;2024-01-30T11:20:20;7.75;;;7.05;;
15039;SDS011;7617;47.366;8.558;2024-01-30T11:22:50;10.27;;;8.43;;
15039;SDS011;7617;47.366;8.558;2024-01-30T11:25:22;8.55;;;7.75;;
15039;SDS011;7617;47.366;8.558;2024-01-30T11:27:51;9.90;;;8.43;;
15039;SDS011;7617;47.366;8.558;2024-01-30T11:30:22;10.13;;;8.68;;
15039;SDS011;7617;47.366;8.558;2024-01-30T11:33:01;10.90;;;8.82;;
15039;SDS011;7617;47.366;8.558;2024-01-30T11:35:33;11.85;;;8.93;;
15039;SDS011;7617;47.366;8.558;2024-01-30T11:38:02;13.20;;;7.90;;
15039;SDS011;7617;47.366;8.558;2024-01-30T11:40:33;9.48;;;8.43;;
15039;SDS011;7617;47.366;8.558;2024-01-30T11:43:03;12.23;;;8.93;;
15039;SDS011;7617;47.366;8.558;2024-01-30T11:45:33;9.27;;;8.38;;
15039;SDS011;7617;47.366;8.558;2024-01-30T11:48:03;8.88;;;7.97;;
15039;SDS011;7617;47.366;8.558;2024-01-30T11:50:32;8.30;;;7.18;;
15039;SDS011;7617;47.366;8.558;2024-01-30T11:53:02;8.55;;;7.70;;
15039;SDS011;7617;47.366;8.558;2024-01-30T11:55:30;8.10;;;6.88;;
15039;SDS011;7617;47.366;8.558;2024-01-30T11:58:02;7.70;;;6.90;;
15039;SDS011;7617;47.366;8.558;2024-01-30T12:00:31;7.40;;;6.70;;
15039;SDS011;7617;47.366;8.558;2024-01-30T12:03:01;7.50;;;6.80;;
15039;SDS011;7617;47.366;8.558;2024-01-30T12:05:31;8.88;;;7.03;;
15039;SDS011;7617;47.366;8.558;2024-01-30T12:08:00;7.85;;;6.90;;
15039;SDS011;7617;47.366;8.558;2024-01-30T12:10:29;7.15;;;6.45;;
15039;SDS011;7617;47.366;8.558;2024-01-30T12:12:57;13.27;;;9.90;;
15039;SDS011;7617;47.366;8.558;2024-01-30T12:15:27;12.15;;;8.80;;
15039;SDS011;7617;47.366;8.558;2024-01-30T12:18:03;9.30;;;7.43;;
15039;SDS011;7617;47.366;8.558;2024-01-30T12:20:33;9.23;;;7.72;;
15039;SDS011;7617;47.366;8.558;2024-01-30T12:23:02;8.48;;;7.57;;
15039;SDS011;7617;47.366;8.558;2024-01-30T12:25:31;10.10;;;7.60;;
15039;SDS011;7617;47.366;8.558;2024-01-30T12:27:59;8.48;;;7.68;;
15039;SDS011;7617;47.366;8.558;2024-01-30T12:30:28;9.00;;;7.20;;
15039;SDS011;7617;47.366;8.558;2024-01-30T12:32:57;8.68;;;6.93;;
15039;SDS011;7617;47.366;8.558;2024-01-30T12:35:25;7.78;;;7.03;;
15039;SDS011;7617;47.366;8.558;2024-01-30T12:37:58;7.75;;;6.78;;
15039;SDS011;7617;47.366;8.558;2024-01-30T12:40:27;8.20;;;7.20;;
15039;SDS011;7617;47.366;8.558;2024-01-30T12:42:55;8.70;;;7.15;;
15039;SDS011;7617;47.366;8.558;2024-01-30T12:45:24;8.98;;;7.00;;
15039;SDS011;7617;47.366;8.558;2024-01-30T12:47:53;8.57;;;7.55;;
15039;SDS011;7617;47.366;8.558;2024-01-30T12:50:21;8.23;;;6.47;;
15039;SDS011;7617;47.366;8.558;2024-01-30T12:52:49;11.07;;;7.15;;
15039;SDS011;7617;47.366;8.558;2024-01-30T12:55:17;9.77;;;7.03;;
15039;SDS011;7617;47.366;8.558;2024-01-30T12:57:46;15.40;;;7.03;;
15039;SDS011;7617;47.366;8.558;2024-01-30T13:00:14;8.23;;;6.68;;
15039;SDS011;7617;47.366;8.558;2024-01-30T13:02:44;9.70;;;6.85;;
15039;SDS011;7617;47.366;8.558;2024-01-30T13:05:13;10.95;;;6.88;;
15039;SDS011;7617;47.366;8.558;2024-01-30T13:07:42;7.03;;;6.32;;
15039;SDS011;7617;47.366;8.558;2024-01-30T13:10:11;9.82;;;7.38;;
15039;SDS011;7617;47.366;8.558;2024-01-30T13:12:39;11.25;;;7.25;;
15039;SDS011;7617;47.366;8.558;2024-01-30T13:15:07;7.93;;;6.57;;
15039;SDS011;7617;47.366;8.558;2024-01-30T13:17:38;7.90;;;6.80;;
15039;SDS011;7617;47.366;8.558;2024-01-30T13:20:06;7.55;;;6.85;;
15039;SDS011;7617;47.366;8.558;2024-01-30T13:22:39;10.73;;;6.72;;
15039;SDS011;7617;47.366;8.558;2024-01-30T13:25:07;9.23;;;5.70;;
15039;SDS011;7617;47.366;8.558;2024-01-30T13:27:35;6.78;;;6.07;;
15039;SDS011;7617;47.366;8.558;2024-01-30T13:30:06;6.32;;;5.72;;
15039;SDS011;7617;47.366;8.558;2024-01-30T13:32:36;6.55;;;4.20;;
15039;SDS011;7617;47.366;8.558;2024-01-30T13:35:04;7.45;;;4.97;;
15039;SDS011;7617;47.366;8.558;2024-01-30T13:37:33;7.55;;;5.32;;
15039;SDS011;7617;47.366;8.558;2024-01-30T13:40:04;7.45;;;5.97;;
15039;SDS011;7617;47.366;8.558;2024-01-30T13:42:37;7.93;;;5.70;;
15039;SDS011;7617;47.366;8.558;2024-01-30T13:45:05;6.63;;;4.43;;
15039;SDS011;7617;47.366;8.558;2024-01-30T13:47:36;7.40;;;4.75;;
15039;SDS011;7617;47.366;8.558;2024-01-30T13:50:05;11.55;;;5.60;;
15039;SDS011;7617;47.366;8.558;2024-01-30T13:52:35;6.30;;;5.15;;
15039;SDS011;7617;47.366;8.558;2024-01-30T13:55:11;7.20;;;5.10;;
15039;SDS011;7617;47.366;8.558;2024-01-30T13:57:40;5.90;;;5.15;;
15039;SDS011;7617;47.366;8.558;2024-01-30T14:00:09;8.13;;;5.43;;
15039;SDS011;7617;47.366;8.558;2024-01-30T14:02:38;6.05;;;5.20;;
15039;SDS011;7617;47.366;8.558;2024-01-30T14:05:06;6.28;;;5.57;;
15039;SDS011;7617;47.366;8.558;2024-01-30T14:07:35;6.85;;;5.10;;
15039;SDS011;7617;47.366;8.558;2024-01-30T14:10:07;6.22;;;5.32;;
15039;SDS011;7617;47.366;8.558;2024-01-30T14:12:42;8.27;;;5.90;;
15039;SDS011;7617;47.366;8.558;2024-01-30T14:15:11;6.07;;;5.45;;
15039;SDS011;7617;47.366;8.558;2024-01-30T14:17:53;7.45;;;5.20;;
15039;SDS011;7617;47.366;8.558;2024-01-30T14:20:22;8.27;;;6.00;;
15039;SDS011;7617;47.366;8.558;2024-01-30T14:22:51;9.15;;;7.80;;
15039;SDS011;7617;47.366;8.558;2024-01-30T14:25:19;6.10;;;5.47;;
15039;SDS011;7617;47.366;8.558;2024-01-30T14:27:49;9.32;;;5.85;;
15039;SDS011;7617;47.366;8.558;2024-01-30T14:30:18;8.95;;;5.45;;
15039;SDS011;7617;47.366;8.558;2024-01-30T14:32:46;7.20;;;5.60;;
15039;SDS011;7617;47.366;8.558;2024-01-30T14:35:15;7.88;;;5.80;;
15039;SDS011;7617;47.366;8.558;2024-01-30T14:37:43;9.10;;;5.50;;
15039;SDS011;7617;47.366;8.558;2024-01-30T14:40:11;8.68;;;6.60;;
15039;SDS011;7617;47.366;8.558;2024-01-30T14:42:40;7.50;;;5.80;;
15039;SDS011;7617;47.366;8.558;2024-01-30T14:45:09;7.72;;;6.97;;
15039;SDS011;7617;47.366;8.558;2024-01-30T14:47:38;9.60;;;6.20;;
15039;SDS011;7617;47.366;8.558;2024-01-30T14:50:08;8.57;;;5.70;;
15039;SDS011;7617;47.366;8.558;2024-01-30T14:52:36;13.55;;;7.30;;
15039;SDS011;7617;47.366;8.558;2024-01-30T14:55:06;11.15;;;6.32;;
15039;SDS011;7617;47.366;8.558;2024-01-30T14:57:35;9.20;;;5.93;;
15039;SDS011;7617;47.366;8.558;2024-01-30T15:00:04;9.10;;;6.50;;
15039;SDS011;7617;47.366;8.558;2024-01-30T15:02:35;8.05;;;6.00;;
15039;SDS011;7617;47.366;8.558;2024-01-30T15:05:03;10.10;;;6.07;;
15039;SDS011;7617;47.366;8.558;2024-01-30T15:07:32;10.38;;;6.72;;
15039;SDS011;7617;47.366;8.558;2024-01-30T15:10:06;11.05;;;7.47;;